createdAt,value
2022-07-25T00:02:19.700Z,100455.59
2022-07-25T00:05:41.684Z,100456.34
2022-07-25T00:09:04.432Z,100441.47
2022-07-25T00:12:25.728Z,100433.53
2022-07-25T00:15:47.219Z,100426.88
2022-07-25T00:19:09.423Z,100428.09
2022-07-25T00:22:30.335Z,100416.63
2022-07-25T00:25:52.901Z,100414.44
2022-07-25T00:29:14.313Z,100414.72
2022-07-25T00:32:35.620Z,100403.72
2022-07-25T00:35:56.727Z,100404.00
2022-07-25T00:39:18.444Z,100405.50
2022-07-25T00:42:41.176Z,100405.19
2022-07-25T00:46:03.112Z,100403.03
2022-07-25T00:49:25.559Z,100397.03
2022-07-25T00:52:47.176Z,100400.53
2022-07-25T00:56:09.403Z,100386.47
2022-07-25T00:59:32.322Z,100383.00
2022-07-25T01:02:53.742Z,100387.69
2022-07-25T01:06:14.958Z,100379.03
2022-07-25T01:09:36.393Z,100381.75
2022-07-25T01:12:57.435Z,100381.94
2022-07-25T01:16:20.181Z,100376.28
2022-07-25T01:19:41.751Z,100369.81
2022-07-25T01:23:04.407Z,100371.78
2022-07-25T01:26:25.530Z,100365.94
2022-07-25T01:29:46.637Z,100369.75
2022-07-25T01:33:07.986Z,100362.69
2022-07-25T01:36:29.311Z,100355.22
2022-07-25T01:39:51.784Z,100353.34
2022-07-25T01:43:14.071Z,100347.47
2022-07-25T01:46:35.690Z,100351.34
2022-07-25T01:49:57.271Z,100346.53
2022-07-25T01:53:18.656Z,100344.66
2022-07-25T01:56:48.308Z,100348.28
2022-07-25T02:00:13.358Z,100345.59
2022-07-25T02:03:35.037Z,100332.19
2022-07-25T02:06:56.139Z,100336.00
2022-07-25T02:10:17.420Z,100335.75
2022-07-25T02:13:39.930Z,100333.69
2022-07-25T02:17:01.743Z,100329.81
2022-07-25T02:20:23.126Z,100323.03
2022-07-25T02:23:45.082Z,100323.16
2022-07-25T02:27:06.976Z,100321.63
2022-07-25T02:30:29.990Z,100324.06
2022-07-25T02:33:51.477Z,100309.38
2022-07-25T02:37:13.208Z,100309.44
2022-07-25T02:40:34.553Z,100309.84
2022-07-25T02:43:56.038Z,100303.31
2022-07-25T02:47:18.714Z,100290.81
2022-07-25T02:50:40.616Z,100278.16
2022-07-25T02:54:01.773Z,100273.25
2022-07-25T02:57:24.272Z,100272.97
2022-07-25T03:00:46.206Z,100269.44
2022-07-25T03:04:09.355Z,100270.19
2022-07-25T03:07:31.342Z,100267.88
2022-07-25T03:10:52.710Z,100263.47
2022-07-25T03:14:14.388Z,100265.25
2022-07-25T03:17:35.774Z,100266.41
2022-07-25T03:20:58.369Z,100261.41
2022-07-25T03:24:19.899Z,100252.88
2022-07-25T03:27:41.465Z,100251.56
2022-07-25T03:31:02.715Z,100251.41
2022-07-25T03:34:23.944Z,100247.94
2022-07-25T03:37:46.771Z,100244.41
2022-07-25T03:41:08.224Z,100235.56
2022-07-25T03:44:29.715Z,100231.03
2022-07-25T03:47:51.154Z,100228.19
2022-07-25T03:51:12.320Z,100227.47
2022-07-25T03:54:34.989Z,100216.81
2022-07-25T03:57:55.897Z,100219.34
2022-07-25T04:01:16.987Z,100212.91
2022-07-25T04:04:40.261Z,100213.97
2022-07-25T04:08:01.731Z,100206.50
2022-07-25T04:11:24.132Z,100209.41
2022-07-25T04:14:45.653Z,100203.47
2022-07-25T04:18:07.244Z,100205.56
2022-07-25T04:21:31.472Z,100204.66
2022-07-25T04:24:52.554Z,100197.63
2022-07-25T04:28:15.489Z,100198.31
2022-07-25T04:31:37.065Z,100197.38
2022-07-25T04:34:58.309Z,100192.63
2022-07-25T04:38:20.697Z,100196.28
2022-07-25T04:41:42.193Z,100183.28
2022-07-25T04:45:05.103Z,100172.56
2022-07-25T04:48:26.350Z,100179.19
2022-07-25T04:51:48.118Z,100168.03
2022-07-25T04:55:09.809Z,100163.47
2022-07-25T04:58:32.561Z,100159.34
2022-07-25T05:01:55.370Z,100158.25
2022-07-25T05:05:21.751Z,100154.22
2022-07-25T05:08:43.744Z,100148.28
2022-07-25T05:12:05.585Z,100151.25
2022-07-25T05:15:26.965Z,100143.22
2022-07-25T05:18:49.595Z,100141.66
2022-07-25T05:22:11.051Z,100148.50
2022-07-25T05:25:33.249Z,100143.69
2022-07-25T05:28:54.473Z,100136.72
2022-07-25T05:32:15.915Z,100134.50
2022-07-25T05:35:38.444Z,100130.50
2022-07-25T05:38:59.458Z,100129.22
2022-07-25T05:42:20.421Z,100129.78
2022-07-25T05:45:42.533Z,100127.84
2022-07-25T05:49:04.458Z,100126.19
2022-07-25T05:52:28.250Z,100117.28
2022-07-25T05:55:49.806Z,100107.69
2022-07-25T05:59:11.880Z,100101.16
2022-07-25T06:02:33.087Z,100101.88
2022-07-25T06:05:56.259Z,100100.75
2022-07-25T06:09:19.733Z,100096.38
2022-07-25T06:12:41.318Z,100095.03
2022-07-25T06:16:04.056Z,100095.22
2022-07-25T06:19:25.311Z,100097.41
2022-07-25T06:22:46.567Z,100090.88
2022-07-25T06:26:11.320Z,100085.28
2022-07-25T06:29:32.639Z,100076.34
2022-07-25T06:32:53.833Z,100073.97
2022-07-25T06:36:15.313Z,100078.91
2022-07-25T06:39:36.301Z,100068.31
2022-07-25T06:42:59.778Z,100070.22
2022-07-25T06:46:21.599Z,100056.59
2022-07-25T06:49:43.666Z,100061.91
2022-07-25T06:53:04.987Z,100060.44
2022-07-25T06:56:31.299Z,100051.88
2022-07-25T06:59:54.046Z,100055.28
2022-07-25T07:03:15.367Z,100045.66
2022-07-25T07:06:38.657Z,100046.56
2022-07-25T07:10:00.424Z,100033.41
2022-07-25T07:13:24.617Z,100036.81
2022-07-25T07:16:47.568Z,100035.19
2022-07-25T07:20:11.037Z,100030.88
2022-07-25T07:23:32.215Z,100026.31
2022-07-25T07:26:55.040Z,100015.75
2022-07-25T07:30:20.847Z,100011.25
2022-07-25T07:33:46.808Z,100005.66
2022-07-25T07:37:08.067Z,100009.50
2022-07-25T07:40:29.364Z,99998.69
2022-07-25T07:43:51.457Z,100007.78
2022-07-25T07:47:14.326Z,99999.13
2022-07-25T07:50:37.750Z,99996.09
2022-07-25T07:54:16.817Z,99992.94
2022-07-25T07:57:39.339Z,99987.56
2022-07-25T08:01:01.072Z,99984.56
2022-07-25T08:04:22.332Z,99983.44
2022-07-25T08:07:45.271Z,99974.25
2022-07-25T08:11:06.712Z,99959.03
2022-07-25T08:14:27.892Z,99964.06
2022-07-25T08:17:50.921Z,99953.56
2022-07-25T08:21:12.096Z,99951.81
2022-07-25T08:24:34.608Z,99946.63
2022-07-25T08:27:55.961Z,99939.63
2022-07-25T08:31:17.345Z,99936.44
2022-07-25T08:34:38.933Z,99932.38
2022-07-25T08:38:01.568Z,99925.94
2022-07-25T08:41:25.012Z,99919.59
2022-07-25T08:44:51.670Z,99923.03
2022-07-25T08:48:13.366Z,99917.47
2022-07-25T08:51:34.945Z,99925.63
2022-07-25T08:54:56.342Z,99919.78
2022-07-25T08:58:19.071Z,99925.03
2022-07-25T09:01:41.081Z,99921.50
2022-07-25T09:05:02.350Z,99925.06
2022-07-25T09:08:23.591Z,99916.25
2022-07-25T09:11:45.469Z,99911.19
2022-07-25T09:15:09.827Z,99910.75
2022-07-25T09:18:33.675Z,99902.22
2022-07-25T09:22:02.580Z,99900.84
2022-07-25T09:25:26.170Z,99894.88
2022-07-25T09:28:49.320Z,99898.97
2022-07-25T09:32:20.691Z,99894.41
2022-07-25T09:35:41.780Z,99891.34
2022-07-25T09:39:05.667Z,99881.34
2022-07-25T09:42:29.102Z,99879.50
2022-07-25T09:45:52.397Z,99878.25
2022-07-25T09:49:16.419Z,99870.59
2022-07-25T09:52:39.238Z,99869.94
2022-07-25T09:56:01.253Z,99875.97
2022-07-25T09:59:22.937Z,99868.50
2022-07-25T10:02:51.566Z,99859.50
2022-07-25T10:06:21.893Z,99861.59
2022-07-25T10:09:45.188Z,99848.47
2022-07-25T10:13:11.049Z,99848.91
2022-07-25T10:16:33.132Z,99851.97
2022-07-25T10:19:58.697Z,99843.91
2022-07-25T10:23:24.113Z,99838.34
2022-07-25T10:26:53.398Z,99833.56
2022-07-25T10:30:21.253Z,99824.91
2022-07-25T10:33:43.533Z,99835.78
2022-07-25T10:37:13.228Z,99835.84
2022-07-25T10:40:39.298Z,99827.09
2022-07-25T10:44:03.932Z,99827.91
2022-07-25T10:47:28.709Z,99830.03
2022-07-25T10:50:56.603Z,99830.06
2022-07-25T10:54:18.577Z,99827.97
2022-07-25T10:57:54.951Z,99823.59
2022-07-25T11:01:24.526Z,99820.66
2022-07-25T11:04:46.320Z,99811.16
2022-07-25T11:08:21.223Z,99813.81
2022-07-25T11:11:48.117Z,99807.63
2022-07-25T11:15:16.934Z,99808.66
2022-07-25T11:18:42.116Z,99801.56
2022-07-25T11:22:05.301Z,99793.22
2022-07-25T11:25:26.363Z,99791.91
2022-07-25T11:28:49.185Z,99778.53
2022-07-25T11:32:13.823Z,99782.19
2022-07-25T11:35:35.650Z,99773.91
2022-07-25T11:38:57.500Z,99772.63
2022-07-25T11:42:20.370Z,99769.47
2022-07-25T11:45:41.950Z,99766.78
2022-07-25T11:49:09.034Z,99762.66
2022-07-25T11:52:32.249Z,99752.78
2022-07-25T11:55:53.777Z,99753.19
2022-07-25T11:59:16.781Z,99740.47
2022-07-25T12:02:38.987Z,99736.34
2022-07-25T12:06:08.811Z,99729.88
2022-07-25T12:09:30.821Z,99738.88
2022-07-25T12:12:54.611Z,99736.47
2022-07-25T12:16:17.238Z,99734.94
2022-07-25T12:19:41.142Z,99740.63
2022-07-25T12:23:05.616Z,99742.06
2022-07-25T12:26:26.595Z,99739.78
2022-07-25T12:29:47.965Z,99726.81
2022-07-25T12:33:09.366Z,99735.88
2022-07-25T12:36:30.838Z,99732.91
2022-07-25T12:39:53.357Z,99732.09
2022-07-25T12:43:14.458Z,99740.19
2022-07-25T12:46:36.055Z,99725.03
2022-07-25T12:49:57.363Z,99724.91
2022-07-25T12:53:18.300Z,99717.91
2022-07-25T12:56:41.843Z,99719.69
2022-07-25T13:00:03.419Z,99720.28
2022-07-25T13:03:24.469Z,99722.34
2022-07-25T13:06:45.949Z,99726.00
2022-07-25T13:10:08.326Z,99719.22
2022-07-25T13:13:31.267Z,99720.09
2022-07-25T13:16:52.711Z,99718.13
2022-07-25T13:20:15.576Z,99722.56
2022-07-25T13:23:36.845Z,99718.63
2022-07-25T13:26:58.126Z,99721.50
2022-07-25T13:30:20.782Z,99729.25
2022-07-25T13:33:43.685Z,99727.25
2022-07-25T13:37:05.450Z,99723.78
2022-07-25T13:40:26.626Z,99736.31
2022-07-25T13:43:47.921Z,99733.69
2022-07-25T13:47:10.768Z,99723.38
2022-07-25T13:50:32.537Z,99734.25
2022-07-25T13:53:53.620Z,99739.41
2022-07-25T13:57:15.260Z,99738.63
2022-07-25T14:00:36.565Z,99747.38
2022-07-25T14:03:59.224Z,99738.13
2022-07-25T14:07:20.364Z,99732.25
2022-07-25T14:10:42.174Z,99724.25
2022-07-25T14:14:04.768Z,99745.06
2022-07-25T14:17:30.109Z,99738.47
2022-07-25T14:20:52.722Z,99729.00
2022-07-25T14:24:14.293Z,99724.69
2022-07-25T14:27:35.810Z,99721.84
2022-07-25T14:30:57.254Z,99712.66
2022-07-25T14:34:19.198Z,99725.94
2022-07-25T14:37:41.887Z,99725.06
2022-07-25T14:41:03.054Z,99721.06
2022-07-25T14:44:24.198Z,99720.84
2022-07-25T14:47:45.635Z,99715.09
2022-07-25T14:51:08.048Z,99714.19
2022-07-25T14:54:31.094Z,99716.81
2022-07-25T14:57:52.837Z,99723.84
2022-07-25T15:01:18.412Z,99728.66
2022-07-25T15:04:40.427Z,99719.47
2022-07-25T15:08:02.147Z,99703.31
2022-07-25T15:11:24.802Z,99704.50
2022-07-25T15:14:46.184Z,99700.84
2022-07-25T15:18:13.420Z,99682.72
2022-07-25T15:21:35.659Z,99681.16
2022-07-25T15:25:34.798Z,99681.19
2022-07-25T15:28:40.461Z,99682.72
2022-07-25T15:32:03.521Z,99674.34
2022-07-25T15:35:24.935Z,99668.56
2022-07-25T15:38:46.339Z,99669.22
2022-07-25T15:42:07.893Z,99667.28
2022-07-25T15:45:32.841Z,99656.22
2022-07-25T15:48:54.424Z,99668.56
2022-07-25T15:52:15.687Z,99663.22
2022-07-25T15:55:38.843Z,99665.81
2022-07-25T15:58:59.983Z,99658.06
2022-07-25T16:02:22.285Z,99650.56
2022-07-25T16:05:44.648Z,99637.91
2022-07-25T16:09:06.573Z,99646.09
2022-07-25T16:12:28.918Z,99657.50
2022-07-25T16:15:50.545Z,99662.34
2022-07-25T16:19:13.714Z,99659.53
2022-07-25T16:22:34.992Z,99650.09
2022-07-25T16:25:56.430Z,99646.16
2022-07-25T16:29:17.885Z,99647.41
2022-07-25T16:32:40.655Z,99649.47
2022-07-25T16:36:04.448Z,99655.84
2022-07-25T16:39:25.903Z,99657.44
2022-07-25T16:42:49.013Z,99695.56
2022-07-25T16:46:10.545Z,99712.81
2022-07-25T16:49:32.013Z,99718.38
2022-07-25T16:52:54.891Z,99708.75
2022-07-25T16:56:17.063Z,99706.13
2022-07-25T16:59:38.442Z,99698.50
2022-07-25T17:02:59.767Z,99700.06
2022-07-25T17:06:22.507Z,99716.06
2022-07-25T17:09:45.542Z,99722.13
2022-07-25T17:13:06.969Z,99717.69
2022-07-25T17:16:28.630Z,99718.69
2022-07-25T17:19:50.236Z,99734.63
2022-07-25T17:23:11.615Z,99736.53
2022-07-25T17:26:34.849Z,99745.88
2022-07-25T17:29:56.193Z,99748.97
2022-07-25T17:33:17.482Z,99742.13
2022-07-25T17:36:38.477Z,99756.91
2022-07-25T17:40:00.198Z,99766.16
2022-07-25T17:43:23.162Z,99779.06
2022-07-25T17:46:44.953Z,99776.34
2022-07-25T17:50:07.650Z,99789.03
2022-07-25T17:53:30.670Z,99806.47
2022-07-25T17:56:52.021Z,99788.22
2022-07-25T18:00:15.648Z,99790.19
2022-07-25T18:03:36.891Z,99790.84
2022-07-25T18:06:59.162Z,99790.81
2022-07-25T18:10:21.641Z,99795.84
2022-07-25T18:13:43.677Z,99802.03
2022-07-25T18:17:07.146Z,99817.47
2022-07-25T18:20:28.987Z,99814.31
2022-07-25T18:23:50.642Z,99821.25
2022-07-25T18:27:12.701Z,99840.28
2022-07-25T18:30:34.089Z,99860.06
2022-07-25T18:33:56.577Z,99820.91
2022-07-25T18:37:17.899Z,99855.06
2022-07-25T18:40:38.947Z,99898.16
2022-07-25T18:44:03.826Z,99916.28
2022-07-25T18:47:27.944Z,99909.72
2022-07-25T18:50:55.230Z,99921.78
2022-07-25T18:54:16.368Z,99924.25
2022-07-25T18:57:37.855Z,99923.81
2022-07-25T19:00:59.183Z,99931.13
2022-07-25T19:04:20.710Z,99923.56
2022-07-25T19:07:43.775Z,99924.16
2022-07-25T19:11:05.763Z,99930.03
2022-07-25T19:14:27.851Z,99893.22
2022-07-25T19:17:49.579Z,99869.19
2022-07-25T19:21:10.619Z,99864.94
2022-07-25T19:24:33.240Z,99830.16
2022-07-25T19:27:55.469Z,99847.06
2022-07-25T19:31:16.681Z,99862.41
2022-07-25T19:34:37.974Z,99842.00
2022-07-25T19:37:59.479Z,99842.66
2022-07-25T19:41:22.257Z,99866.19
2022-07-25T19:44:44.023Z,99848.56
2022-07-25T19:48:05.284Z,99857.97
2022-07-25T19:51:26.927Z,99857.22
2022-07-25T19:54:48.392Z,99853.09
2022-07-25T19:58:11.375Z,99886.75
2022-07-25T20:01:34.254Z,99864.72
2022-07-25T20:04:55.630Z,99871.09
2022-07-25T20:08:18.749Z,99878.13
2022-07-25T20:11:41.183Z,99879.53
2022-07-25T20:15:04.754Z,99885.66
2022-07-25T20:18:26.027Z,99878.53
2022-07-25T20:21:48.622Z,99878.63
2022-07-25T20:25:12.214Z,99878.63
2022-07-25T20:28:33.617Z,99890.78
2022-07-25T20:31:56.082Z,99891.88
2022-07-25T20:35:17.591Z,99905.44
2022-07-25T20:38:39.010Z,99900.56
2022-07-25T20:42:00.328Z,99903.00
2022-07-25T20:45:21.372Z,99910.59
2022-07-25T20:48:45.129Z,99917.53
2022-07-25T20:52:07.714Z,99931.59
2022-07-25T20:55:31.248Z,99940.41
2022-07-25T20:58:52.647Z,99943.03
2022-07-25T21:02:17.255Z,99940.69
2022-07-25T21:05:40.395Z,99947.50
2022-07-25T21:09:01.736Z,99957.22
2022-07-25T21:12:24.291Z,99968.25
2022-07-25T21:15:45.600Z,99982.72
2022-07-25T21:19:07.091Z,99998.63
2022-07-25T21:22:29.963Z,100020.97
2022-07-25T21:25:51.059Z,100027.16
2022-07-25T21:29:13.331Z,100036.84
2022-07-25T21:32:35.186Z,100045.22
2022-07-25T21:35:57.298Z,100048.09
2022-07-25T21:39:20.261Z,100056.56
2022-07-25T21:42:42.630Z,100054.50
2022-07-25T21:46:04.144Z,100051.47
2022-07-25T21:49:43.370Z,100055.63
2022-07-25T21:53:06.359Z,100057.50
2022-07-25T21:56:29.053Z,100059.47
2022-07-25T21:59:50.606Z,100055.34
2022-07-25T22:03:11.941Z,100058.91
2022-07-25T22:06:33.250Z,100074.34
2022-07-25T22:09:54.836Z,100071.72
2022-07-25T22:13:17.275Z,100076.03
2022-07-25T22:16:40.329Z,100081.63
2022-07-25T22:20:02.153Z,100082.19
2022-07-25T22:23:23.671Z,100093.28
2022-07-25T22:26:45.308Z,100099.75
2022-07-25T22:30:13.345Z,100106.97
2022-07-25T22:33:38.243Z,100100.28
2022-07-25T22:36:59.564Z,100104.91
2022-07-25T22:40:21.207Z,100117.06
2022-07-25T22:43:57.446Z,100121.44
2022-07-25T22:47:21.144Z,100126.53
2022-07-25T22:50:42.315Z,100123.03
2022-07-25T22:54:03.897Z,100135.94
2022-07-25T22:57:27.482Z,100134.31
2022-07-25T23:00:48.685Z,100143.69
2022-07-25T23:04:12.579Z,100143.28
2022-07-25T23:07:34.524Z,100141.91
2022-07-25T23:10:56.199Z,100150.44
2022-07-25T23:14:17.935Z,100144.13
2022-07-25T23:17:39.682Z,100152.19
2022-07-25T23:21:02.729Z,100154.09
2022-07-25T23:24:24.086Z,100152.13
2022-07-25T23:27:46.013Z,100158.78
2022-07-25T23:31:08.777Z,100159.75
2022-07-25T23:34:30.581Z,100165.38
2022-07-25T23:37:53.383Z,100172.03
2022-07-25T23:41:15.778Z,100168.28
2022-07-25T23:44:37.994Z,100169.50
2022-07-25T23:47:59.756Z,100178.00
2022-07-25T23:51:20.950Z,100176.88
2022-07-25T23:54:44.146Z,100175.53
2022-07-25T23:58:05.886Z,100181.59
